sensor_id;sensor_type;location;lat;lon;timestamp;temperature;humidity
56538;DHT22;42435;53.292;6.000;2023-05-09T00:00:19;16.20;78.20
56538;DHT22;42435;53.292;6.000;2023-05-09T00:02:45;16.10;78.30
56538;DHT22;42435;53.292;6.000;2023-05-09T00:05:12;16.10;78.40
56538;DHT22;42435;53.292;6.000;2023-05-09T00:07:39;16.00;78.40
56538;DHT22;42435;53.292;6.000;2023-05-09T00:10:05;16.00;78.60
56538;DHT22;42435;53.292;6.000;2023-05-09T00:12:31;16.00;78.70
56538;DHT22;42435;53.292;6.000;2023-05-09T00:14:57;16.00;78.90
56538;DHT22;42435;53.292;6.000;2023-05-09T00:17:23;15.90;79.00
56538;DHT22;42435;53.292;6.000;2023-05-09T00:19:50;15.90;79.00
56538;DHT22;42435;53.292;6.000;2023-05-09T00:22:17;15.90;79.20
56538;DHT22;42435;53.292;6.000;2023-05-09T00:24:43;15.90;79.40
56538;DHT22;42435;53.292;6.000;2023-05-09T00:27:12;15.90;79.50
56538;DHT22;42435;53.292;6.000;2023-05-09T00:29:38;15.90;79.50
56538;DHT22;42435;53.292;6.000;2023-05-09T00:32:04;15.80;79.50
56538;DHT22;42435;53.292;6.000;2023-05-09T00:34:29;15.70;79.70
56538;DHT22;42435;53.292;6.000;2023-05-09T00:36:55;15.70;79.80
56538;DHT22;42435;53.292;6.000;2023-05-09T00:39:20;15.60;79.90
56538;DHT22;42435;53.292;6.000;2023-05-09T00:41:46;15.60;80.10
56538;DHT22;42435;53.292;6.000;2023-05-09T00:44:13;15.60;80.20
56538;DHT22;42435;53.292;6.000;2023-05-09T00:46:38;15.60;80.20
56538;DHT22;42435;53.292;6.000;2023-05-09T00:49:05;15.60;80.30
56538;DHT22;42435;53.292;6.000;2023-05-09T00:51:31;15.60;80.40
56538;DHT22;42435;53.292;6.000;2023-05-09T00:53:58;15.70;80.40
56538;DHT22;42435;53.292;6.000;2023-05-09T00:56:24;15.60;80.40
56538;DHT22;42435;53.292;6.000;2023-05-09T00:58:50;15.70;80.40
56538;DHT22;42435;53.292;6.000;2023-05-09T01:01:18;15.70;80.40
56538;DHT22;42435;53.292;6.000;2023-05-09T01:03:44;15.70;80.40
56538;DHT22;42435;53.292;6.000;2023-05-09T01:12:29;15.70;80.50
56538;DHT22;42435;53.292;6.000;2023-05-09T01:15:02;15.70;80.40
56538;DHT22;42435;53.292;6.000;2023-05-09T01:17:57;15.70;80.50
56538;DHT22;42435;53.292;6.000;2023-05-09T01:28:44;15.70;80.60
56538;DHT22;42435;53.292;6.000;2023-05-09T01:31:18;15.70;80.50
56538;DHT22;42435;53.292;6.000;2023-05-09T01:33:46;15.60;80.50
56538;DHT22;42435;53.292;6.000;2023-05-09T01:36:16;15.60;80.60
56538;DHT22;42435;53.292;6.000;2023-05-09T01:38:43;15.70;80.70
56538;DHT22;42435;53.292;6.000;2023-05-09T01:41:11;15.60;80.70
56538;DHT22;42435;53.292;6.000;2023-05-09T01:43:40;15.60;80.70
56538;DHT22;42435;53.292;6.000;2023-05-09T01:46:07;15.60;80.80
56538;DHT22;42435;53.292;6.000;2023-05-09T01:48:36;15.60;80.90
56538;DHT22;42435;53.292;6.000;2023-05-09T01:51:03;15.60;81.00
56538;DHT22;42435;53.292;6.000;2023-05-09T01:53:30;15.60;81.00
56538;DHT22;42435;53.292;6.000;2023-05-09T01:55:57;15.60;81.10
56538;DHT22;42435;53.292;6.000;2023-05-09T01:58:24;15.60;81.10
56538;DHT22;42435;53.292;6.000;2023-05-09T02:00:51;15.60;81.10
56538;DHT22;42435;53.292;6.000;2023-05-09T02:03:17;15.60;81.20
56538;DHT22;42435;53.292;6.000;2023-05-09T02:05:44;15.60;81.30
56538;DHT22;42435;53.292;6.000;2023-05-09T02:08:10;15.60;81.40
56538;DHT22;42435;53.292;6.000;2023-05-09T02:10:38;15.60;81.40
56538;DHT22;42435;53.292;6.000;2023-05-09T02:13:04;15.60;81.50
56538;DHT22;42435;53.292;6.000;2023-05-09T02:15:29;15.60;81.50
56538;DHT22;42435;53.292;6.000;2023-05-09T02:17:55;15.60;81.50
56538;DHT22;42435;53.292;6.000;2023-05-09T02:20:21;15.70;81.50
56538;DHT22;42435;53.292;6.000;2023-05-09T02:22:47;15.70;81.50
56538;DHT22;42435;53.292;6.000;2023-05-09T02:25:13;15.70;81.40
56538;DHT22;42435;53.292;6.000;2023-05-09T02:27:44;15.70;81.50
56538;DHT22;42435;53.292;6.000;2023-05-09T02:30:18;15.70;81.50
56538;DHT22;42435;53.292;6.000;2023-05-09T02:33:01;15.70;81.50
56538;DHT22;42435;53.292;6.000;2023-05-09T02:35:27;15.70;81.60
56538;DHT22;42435;53.292;6.000;2023-05-09T02:37:54;15.70;81.50
56538;DHT22;42435;53.292;6.000;2023-05-09T02:40:23;15.70;81.50
56538;DHT22;42435;53.292;6.000;2023-05-09T02:42:50;15.70;81.50
56538;DHT22;42435;53.292;6.000;2023-05-09T02:45:16;15.70;81.60
56538;DHT22;42435;53.292;6.000;2023-05-09T02:47:42;15.70;81.60
56538;DHT22;42435;53.292;6.000;2023-05-09T02:50:11;15.70;81.60
56538;DHT22;42435;53.292;6.000;2023-05-09T02:52:36;15.70;81.60
56538;DHT22;42435;53.292;6.000;2023-05-09T02:55:02;15.70;81.60
56538;DHT22;42435;53.292;6.000;2023-05-09T02:57:28;15.80;81.60
56538;DHT22;42435;53.292;6.000;2023-05-09T02:59:53;15.80;81.50
56538;DHT22;42435;53.292;6.000;2023-05-09T03:02:19;15.70;81.50
56538;DHT22;42435;53.292;6.000;2023-05-09T03:04:45;15.80;81.50
56538;DHT22;42435;53.292;6.000;2023-05-09T03:07:11;15.80;81.40
56538;DHT22;42435;53.292;6.000;2023-05-09T03:09:37;15.80;81.40
56538;DHT22;42435;53.292;6.000;2023-05-09T03:12:04;15.80;81.50
56538;DHT22;42435;53.292;6.000;2023-05-09T03:14:30;15.80;81.50
56538;DHT22;42435;53.292;6.000;2023-05-09T03:16:56;15.70;81.40
56538;DHT22;42435;53.292;6.000;2023-05-09T03:19:21;15.80;81.40
56538;DHT22;42435;53.292;6.000;2023-05-09T03:21:47;15.80;81.40
56538;DHT22;42435;53.292;6.000;2023-05-09T03:24:13;15.80;81.40
56538;DHT22;42435;53.292;6.000;2023-05-09T03:26:38;15.80;81.40
56538;DHT22;42435;53.292;6.000;2023-05-09T03:29:04;15.80;81.40
56538;DHT22;42435;53.292;6.000;2023-05-09T03:31:30;15.80;81.40
56538;DHT22;42435;53.292;6.000;2023-05-09T03:33:56;15.70;81.40
56538;DHT22;42435;53.292;6.000;2023-05-09T03:36:22;15.70;81.40
56538;DHT22;42435;53.292;6.000;2023-05-09T03:38:47;15.70;81.40
56538;DHT22;42435;53.292;6.000;2023-05-09T03:41:15;15.70;81.40
56538;DHT22;42435;53.292;6.000;2023-05-09T03:43:40;15.70;81.30
56538;DHT22;42435;53.292;6.000;2023-05-09T03:46:06;15.70;81.30
56538;DHT22;42435;53.292;6.000;2023-05-09T03:48:32;15.70;81.30
56538;DHT22;42435;53.292;6.000;2023-05-09T03:50:57;15.70;81.30
56538;DHT22;42435;53.292;6.000;2023-05-09T03:53:24;15.70;81.40
56538;DHT22;42435;53.292;6.000;2023-05-09T03:55:50;15.60;81.40
56538;DHT22;42435;53.292;6.000;2023-05-09T04:00:42;15.70;81.40
56538;DHT22;42435;53.292;6.000;2023-05-09T04:03:11;15.70;81.50
56538;DHT22;42435;53.292;6.000;2023-05-09T04:05:37;15.70;81.40
56538;DHT22;42435;53.292;6.000;2023-05-09T04:08:05;15.60;81.50
56538;DHT22;42435;53.292;6.000;2023-05-09T04:10:34;15.70;81.50
56538;DHT22;42435;53.292;6.000;2023-05-09T04:13:00;15.70;81.50
56538;DHT22;42435;53.292;6.000;2023-05-09T04:15:25;15.70;81.50
56538;DHT22;42435;53.292;6.000;2023-05-09T04:17:51;15.70;81.40
56538;DHT22;42435;53.292;6.000;2023-05-09T04:20:16;15.70;81.50
56538;DHT22;42435;53.292;6.000;2023-05-09T04:22:42;15.70;81.50
56538;DHT22;42435;53.292;6.000;2023-05-09T04:25:09;15.70;81.50
56538;DHT22;42435;53.292;6.000;2023-05-09T04:27:39;15.80;81.60
56538;DHT22;42435;53.292;6.000;2023-05-09T04:30:07;15.80;81.50
56538;DHT22;42435;53.292;6.000;2023-05-09T04:32:32;15.80;81.60
56538;DHT22;42435;53.292;6.000;2023-05-09T04:34:59;15.80;81.60
56538;DHT22;42435;53.292;6.000;2023-05-09T04:37:25;15.80;81.60
56538;DHT22;42435;53.292;6.000;2023-05-09T04:39:51;15.80;81.50
56538;DHT22;42435;53.292;6.000;2023-05-09T04:42:16;15.90;81.50
56538;DHT22;42435;53.292;6.000;2023-05-09T04:44:42;15.90;81.40
56538;DHT22;42435;53.292;6.000;2023-05-09T04:47:08;15.90;81.40
56538;DHT22;42435;53.292;6.000;2023-05-09T04:49:33;15.90;81.40
56538;DHT22;42435;53.292;6.000;2023-05-09T04:51:59;15.90;81.40
56538;DHT22;42435;53.292;6.000;2023-05-09T04:54:25;15.90;81.30
56538;DHT22;42435;53.292;6.000;2023-05-09T04:56:52;16.00;81.30
56538;DHT22;42435;53.292;6.000;2023-05-09T04:59:17;16.00;81.20
56538;DHT22;42435;53.292;6.000;2023-05-09T05:01:43;16.00;81.20
56538;DHT22;42435;53.292;6.000;2023-05-09T05:04:08;16.00;81.20
56538;DHT22;42435;53.292;6.000;2023-05-09T05:06:35;16.00;81.30
56538;DHT22;42435;53.292;6.000;2023-05-09T05:09:01;16.00;81.20
56538;DHT22;42435;53.292;6.000;2023-05-09T05:11:26;16.00;81.30
56538;DHT22;42435;53.292;6.000;2023-05-09T05:13:53;16.00;81.30
56538;DHT22;42435;53.292;6.000;2023-05-09T05:16:18;16.00;81.30
56538;DHT22;42435;53.292;6.000;2023-05-09T05:18:44;16.00;81.40
56538;DHT22;42435;53.292;6.000;2023-05-09T05:21:10;16.00;81.40
56538;DHT22;42435;53.292;6.000;2023-05-09T05:23:35;16.10;81.50
56538;DHT22;42435;53.292;6.000;2023-05-09T05:26:02;16.10;81.40
56538;DHT22;42435;53.292;6.000;2023-05-09T05:28:28;16.10;81.40
56538;DHT22;42435;53.292;6.000;2023-05-09T05:30:53;16.10;81.40
56538;DHT22;42435;53.292;6.000;2023-05-09T05:33:21;16.20;81.40
56538;DHT22;42435;53.292;6.000;2023-05-09T05:35:47;16.20;81.50
56538;DHT22;42435;53.292;6.000;2023-05-09T05:38:12;16.20;81.50
56538;DHT22;42435;53.292;6.000;2023-05-09T05:40:38;16.30;81.50
56538;DHT22;42435;53.292;6.000;2023-05-09T05:43:04;16.40;81.50
56538;DHT22;42435;53.292;6.000;2023-05-09T05:45:30;16.40;81.50
56538;DHT22;42435;53.292;6.000;2023-05-09T05:47:56;16.40;81.40
56538;DHT22;42435;53.292;6.000;2023-05-09T05:50:22;16.50;81.40
56538;DHT22;42435;53.292;6.000;2023-05-09T05:52:47;16.50;81.40
56538;DHT22;42435;53.292;6.000;2023-05-09T05:55:13;16.70;81.30
56538;DHT22;42435;53.292;6.000;2023-05-09T05:57:41;16.70;81.20
56538;DHT22;42435;53.292;6.000;2023-05-09T06:00:07;16.80;81.10
56538;DHT22;42435;53.292;6.000;2023-05-09T06:02:36;16.90;80.80
56538;DHT22;42435;53.292;6.000;2023-05-09T06:05:02;16.90;80.60
56538;DHT22;42435;53.292;6.000;2023-05-09T06:07:29;16.90;80.40
56538;DHT22;42435;53.292;6.000;2023-05-09T06:09:55;17.10;80.20
56538;DHT22;42435;53.292;6.000;2023-05-09T06:12:20;17.10;80.10
56538;DHT22;42435;53.292;6.000;2023-05-09T06:14:46;17.10;79.90
56538;DHT22;42435;53.292;6.000;2023-05-09T06:17:11;17.20;79.80
56538;DHT22;42435;53.292;6.000;2023-05-09T06:19:37;17.20;79.90
56538;DHT22;42435;53.292;6.000;2023-05-09T06:22:02;17.30;79.80
56538;DHT22;42435;53.292;6.000;2023-05-09T06:24:28;17.30;79.60
56538;DHT22;42435;53.292;6.000;2023-05-09T06:26:54;17.30;79.60
56538;DHT22;42435;53.292;6.000;2023-05-09T06:29:19;17.40;79.50
56538;DHT22;42435;53.292;6.000;2023-05-09T06:31:45;17.40;79.60
56538;DHT22;42435;53.292;6.000;2023-05-09T06:34:10;17.50;79.50
56538;DHT22;42435;53.292;6.000;2023-05-09T06:36:36;17.50;79.30
56538;DHT22;42435;53.292;6.000;2023-05-09T06:39:02;17.60;79.10
56538;DHT22;42435;53.292;6.000;2023-05-09T06:41:28;17.60;79.00
56538;DHT22;42435;53.292;6.000;2023-05-09T06:43:53;17.60;78.90
56538;DHT22;42435;53.292;6.000;2023-05-09T06:46:19;17.70;78.80
56538;DHT22;42435;53.292;6.000;2023-05-09T06:48:46;17.70;78.80
56538;DHT22;42435;53.292;6.000;2023-05-09T06:51:11;17.70;78.70
56538;DHT22;42435;53.292;6.000;2023-05-09T06:53:37;17.70;78.50
56538;DHT22;42435;53.292;6.000;2023-05-09T06:56:03;17.80;78.50
56538;DHT22;42435;53.292;6.000;2023-05-09T06:58:29;17.90;78.40
56538;DHT22;42435;53.292;6.000;2023-05-09T07:00:54;17.90;78.30
56538;DHT22;42435;53.292;6.000;2023-05-09T07:03:20;17.90;78.20
56538;DHT22;42435;53.292;6.000;2023-05-09T07:05:46;18.00;78.00
56538;DHT22;42435;53.292;6.000;2023-05-09T07:08:12;18.00;77.90
56538;DHT22;42435;53.292;6.000;2023-05-09T07:10:37;18.00;77.90
56538;DHT22;42435;53.292;6.000;2023-05-09T07:13:03;18.10;77.50
56538;DHT22;42435;53.292;6.000;2023-05-09T07:15:29;18.10;77.20
56538;DHT22;42435;53.292;6.000;2023-05-09T07:17:55;18.20;77.00
56538;DHT22;42435;53.292;6.000;2023-05-09T07:20:20;18.20;76.80
56538;DHT22;42435;53.292;6.000;2023-05-09T07:22:46;18.30;76.50
56538;DHT22;42435;53.292;6.000;2023-05-09T07:25:12;18.40;76.20
56538;DHT22;42435;53.292;6.000;2023-05-09T07:27:37;18.40;76.00
56538;DHT22;42435;53.292;6.000;2023-05-09T07:30:04;18.40;76.00
56538;DHT22;42435;53.292;6.000;2023-05-09T07:32:30;18.50;76.00
56538;DHT22;42435;53.292;6.000;2023-05-09T07:34:55;18.60;75.70
56538;DHT22;42435;53.292;6.000;2023-05-09T07:37:21;18.70;75.40
56538;DHT22;42435;53.292;6.000;2023-05-09T07:39:50;18.70;75.20
56538;DHT22;42435;53.292;6.000;2023-05-09T07:42:16;18.70;74.90
56538;DHT22;42435;53.292;6.000;2023-05-09T07:44:42;18.70;74.40
56538;DHT22;42435;53.292;6.000;2023-05-09T07:47:11;18.70;74.30
56538;DHT22;42435;53.292;6.000;2023-05-09T07:49:37;18.70;74.20
56538;DHT22;42435;53.292;6.000;2023-05-09T07:52:04;18.70;74.20
56538;DHT22;42435;53.292;6.000;2023-05-09T07:54:30;18.70;74.00
56538;DHT22;42435;53.292;6.000;2023-05-09T07:56:55;18.70;73.90
56538;DHT22;42435;53.292;6.000;2023-05-09T07:59:21;18.70;73.90
56538;DHT22;42435;53.292;6.000;2023-05-09T08:01:46;18.60;74.10
56538;DHT22;42435;53.292;6.000;2023-05-09T08:04:12;18.60;74.30
56538;DHT22;42435;53.292;6.000;2023-05-09T08:06:38;18.50;74.40
56538;DHT22;42435;53.292;6.000;2023-05-09T08:09:04;18.40;74.60
56538;DHT22;42435;53.292;6.000;2023-05-09T08:11:34;18.40;74.80
56538;DHT22;42435;53.292;6.000;2023-05-09T08:14:00;18.40;74.90
56538;DHT22;42435;53.292;6.000;2023-05-09T08:16:27;18.30;75.20
56538;DHT22;42435;53.292;6.000;2023-05-09T08:18:53;18.30;75.50
56538;DHT22;42435;53.292;6.000;2023-05-09T08:21:20;18.40;75.60
56538;DHT22;42435;53.292;6.000;2023-05-09T08:23:46;18.30;75.60
56538;DHT22;42435;53.292;6.000;2023-05-09T08:26:11;18.30;75.40
56538;DHT22;42435;53.292;6.000;2023-05-09T08:28:37;18.30;75.30
56538;DHT22;42435;53.292;6.000;2023-05-09T08:31:03;18.20;75.40
56538;DHT22;42435;53.292;6.000;2023-05-09T08:33:28;18.20;75.40
56538;DHT22;42435;53.292;6.000;2023-05-09T08:35:54;18.20;75.40
56538;DHT22;42435;53.292;6.000;2023-05-09T08:38:20;18.20;75.60
56538;DHT22;42435;53.292;6.000;2023-05-09T08:40:46;18.30;75.90
56538;DHT22;42435;53.292;6.000;2023-05-09T08:43:12;18.30;75.80
56538;DHT22;42435;53.292;6.000;2023-05-09T08:46:12;18.40;75.80
56538;DHT22;42435;53.292;6.000;2023-05-09T08:48:40;18.40;75.70
56538;DHT22;42435;53.292;6.000;2023-05-09T08:51:07;18.40;75.60
56538;DHT22;42435;53.292;6.000;2023-05-09T08:53:36;18.40;75.10
56538;DHT22;42435;53.292;6.000;2023-05-09T08:56:03;18.50;74.60
56538;DHT22;42435;53.292;6.000;2023-05-09T08:58:30;18.50;74.40
56538;DHT22;42435;53.292;6.000;2023-05-09T09:00:55;18.60;74.30
56538;DHT22;42435;53.292;6.000;2023-05-09T09:03:22;18.70;74.00
56538;DHT22;42435;53.292;6.000;2023-05-09T09:05:50;18.80;73.50
56538;DHT22;42435;53.292;6.000;2023-05-09T09:08:17;18.90;72.80
56538;DHT22;42435;53.292;6.000;2023-05-09T09:10:43;19.00;72.50
56538;DHT22;42435;53.292;6.000;2023-05-09T09:13:13;19.00;72.30
56538;DHT22;42435;53.292;6.000;2023-05-09T09:15:41;19.10;72.10
56538;DHT22;42435;53.292;6.000;2023-05-09T09:18:11;19.30;71.80
56538;DHT22;42435;53.292;6.000;2023-05-09T09:20:44;19.40;71.50
56538;DHT22;42435;53.292;6.000;2023-05-09T09:23:16;19.50;71.10
56538;DHT22;42435;53.292;6.000;2023-05-09T09:25:45;19.60;70.50
56538;DHT22;42435;53.292;6.000;2023-05-09T09:28:11;19.70;70.00
56538;DHT22;42435;53.292;6.000;2023-05-09T09:30:48;19.80;69.60
56538;DHT22;42435;53.292;6.000;2023-05-09T09:33:21;19.90;68.80
56538;DHT22;42435;53.292;6.000;2023-05-09T09:35:48;20.00;68.20
56538;DHT22;42435;53.292;6.000;2023-05-09T09:38:17;20.00;68.40
56538;DHT22;42435;53.292;6.000;2023-05-09T09:43:16;20.20;67.40
56538;DHT22;42435;53.292;6.000;2023-05-09T09:45:41;20.20;67.10
56538;DHT22;42435;53.292;6.000;2023-05-09T09:48:07;20.20;66.80
56538;DHT22;42435;53.292;6.000;2023-05-09T09:50:33;20.20;66.60
56538;DHT22;42435;53.292;6.000;2023-05-09T09:52:58;20.20;66.90
56538;DHT22;42435;53.292;6.000;2023-05-09T09:55:28;20.30;66.70
56538;DHT22;42435;53.292;6.000;2023-05-09T09:57:54;20.30;66.30
56538;DHT22;42435;53.292;6.000;2023-05-09T10:00:26;20.30;66.00
56538;DHT22;42435;53.292;6.000;2023-05-09T10:02:57;20.30;65.70
56538;DHT22;42435;53.292;6.000;2023-05-09T10:05:25;20.40;65.70
56538;DHT22;42435;53.292;6.000;2023-05-09T10:07:55;20.40;65.20
56538;DHT22;42435;53.292;6.000;2023-05-09T10:10:35;20.40;65.10
56538;DHT22;42435;53.292;6.000;2023-05-09T10:13:09;20.40;65.00
56538;DHT22;42435;53.292;6.000;2023-05-09T10:15:39;20.40;65.10
56538;DHT22;42435;53.292;6.000;2023-05-09T10:18:12;20.40;65.20
56538;DHT22;42435;53.292;6.000;2023-05-09T10:20:44;20.40;65.40
56538;DHT22;42435;53.292;6.000;2023-05-09T10:23:17;20.40;65.50
56538;DHT22;42435;53.292;6.000;2023-05-09T10:28:53;20.40;65.50
56538;DHT22;42435;53.292;6.000;2023-05-09T10:31:38;20.40;65.50
56538;DHT22;42435;53.292;6.000;2023-05-09T10:34:09;20.30;65.50
56538;DHT22;42435;53.292;6.000;2023-05-09T10:36:36;20.20;65.40
56538;DHT22;42435;53.292;6.000;2023-05-09T10:39:02;20.20;65.40
56538;DHT22;42435;53.292;6.000;2023-05-09T10:41:28;20.10;65.40
56538;DHT22;42435;53.292;6.000;2023-05-09T10:43:57;20.10;65.50
56538;DHT22;42435;53.292;6.000;2023-05-09T10:46:24;20.10;65.60
56538;DHT22;42435;53.292;6.000;2023-05-09T10:48:51;20.10;65.40
56538;DHT22;42435;53.292;6.000;2023-05-09T10:51:19;20.10;65.40
56538;DHT22;42435;53.292;6.000;2023-05-09T10:53:47;20.00;65.40
56538;DHT22;42435;53.292;6.000;2023-05-09T10:56:31;20.10;65.50
56538;DHT22;42435;53.292;6.000;2023-05-09T10:58:58;20.00;65.70
56538;DHT22;42435;53.292;6.000;2023-05-09T11:01:34;20.00;65.70
56538;DHT22;42435;53.292;6.000;2023-05-09T11:04:11;20.00;65.90
56538;DHT22;42435;53.292;6.000;2023-05-09T11:09:33;19.90;66.10
56538;DHT22;42435;53.292;6.000;2023-05-09T11:14:48;19.80;66.70
56538;DHT22;42435;53.292;6.000;2023-05-09T11:22:17;19.60;67.70
56538;DHT22;42435;53.292;6.000;2023-05-09T11:24:46;19.50;68.10
56538;DHT22;42435;53.292;6.000;2023-05-09T11:27:22;19.50;68.40
56538;DHT22;42435;53.292;6.000;2023-05-09T11:29:56;19.50;69.10
56538;DHT22;42435;53.292;6.000;2023-05-09T11:32:41;19.50;69.40
56538;DHT22;42435;53.292;6.000;2023-05-09T11:35:18;19.50;69.90
56538;DHT22;42435;53.292;6.000;2023-05-09T11:40:25;19.40;70.60
56538;DHT22;42435;53.292;6.000;2023-05-09T11:42:54;19.40;70.70
56538;DHT22;42435;53.292;6.000;2023-05-09T11:45:31;19.40;71.00
56538;DHT22;42435;53.292;6.000;2023-05-09T11:47:57;19.40;71.10
56538;DHT22;42435;53.292;6.000;2023-05-09T11:50:27;19.40;71.40
56538;DHT22;42435;53.292;6.000;2023-05-09T11:52:53;19.40;71.90
56538;DHT22;42435;53.292;6.000;2023-05-09T11:55:20;19.40;72.20
56538;DHT22;42435;53.292;6.000;2023-05-09T11:57:57;19.40;72.50
56538;DHT22;42435;53.292;6.000;2023-05-09T12:00:25;19.50;72.90
56538;DHT22;42435;53.292;6.000;2023-05-09T12:02:52;19.50;73.10
56538;DHT22;42435;53.292;6.000;2023-05-09T12:05:19;19.50;73.30
56538;DHT22;42435;53.292;6.000;2023-05-09T12:07:51;19.50;73.50
56538;DHT22;42435;53.292;6.000;2023-05-09T12:10:21;19.50;73.50
56538;DHT22;42435;53.292;6.000;2023-05-09T12:12:50;19.50;73.40
56538;DHT22;42435;53.292;6.000;2023-05-09T12:15:16;19.50;73.60
56538;DHT22;42435;53.292;6.000;2023-05-09T12:17:43;19.50;73.80
56538;DHT22;42435;53.292;6.000;2023-05-09T12:20:11;19.40;73.90
56538;DHT22;42435;53.292;6.000;2023-05-09T12:22:44;19.40;73.60
56538;DHT22;42435;53.292;6.000;2023-05-09T12:25:21;19.40;73.70
56538;DHT22;42435;53.292;6.000;2023-05-09T12:27:50;19.30;73.90
56538;DHT22;42435;53.292;6.000;2023-05-09T12:30:21;19.30;74.50
56538;DHT22;42435;53.292;6.000;2023-05-09T12:32:58;19.30;74.50
56538;DHT22;42435;53.292;6.000;2023-05-09T12:35:24;19.30;74.40
56538;DHT22;42435;53.292;6.000;2023-05-09T12:37:57;19.30;74.50
56538;DHT22;42435;53.292;6.000;2023-05-09T12:40:23;19.20;74.50
56538;DHT22;42435;53.292;6.000;2023-05-09T12:42:49;19.20;74.50
56538;DHT22;42435;53.292;6.000;2023-05-09T12:45:22;19.10;74.70
56538;DHT22;42435;53.292;6.000;2023-05-09T12:47:55;19.10;74.80
56538;DHT22;42435;53.292;6.000;2023-05-09T12:50:29;19.00;74.80
56538;DHT22;42435;53.292;6.000;2023-05-09T12:52:56;19.00;74.60
56538;DHT22;42435;53.292;6.000;2023-05-09T12:55:28;18.90;74.60
56538;DHT22;42435;53.292;6.000;2023-05-09T12:58:01;18.90;75.00
56538;DHT22;42435;53.292;6.000;2023-05-09T13:00:43;18.80;75.50
56538;DHT22;42435;53.292;6.000;2023-05-09T13:03:27;18.80;76.00
56538;DHT22;42435;53.292;6.000;2023-05-09T13:06:03;18.80;76.30
56538;DHT22;42435;53.292;6.000;2023-05-09T13:08:55;18.80;76.30
56538;DHT22;42435;53.292;6.000;2023-05-09T13:11:21;18.80;76.10
56538;DHT22;42435;53.292;6.000;2023-05-09T13:13:47;18.70;75.80
56538;DHT22;42435;53.292;6.000;2023-05-09T13:16:13;18.70;76.00
56538;DHT22;42435;53.292;6.000;2023-05-09T13:18:40;18.70;76.40
56538;DHT22;42435;53.292;6.000;2023-05-09T13:21:11;18.60;76.40
56538;DHT22;42435;53.292;6.000;2023-05-09T13:23:41;18.60;76.30
56538;DHT22;42435;53.292;6.000;2023-05-09T13:26:16;18.60;76.50
56538;DHT22;42435;53.292;6.000;2023-05-09T13:28:45;18.50;76.60
56538;DHT22;42435;53.292;6.000;2023-05-09T13:31:14;18.50;76.50
56538;DHT22;42435;53.292;6.000;2023-05-09T13:33:45;18.50;76.30
56538;DHT22;42435;53.292;6.000;2023-05-09T13:36:14;18.40;76.20
56538;DHT22;42435;53.292;6.000;2023-05-09T13:38:41;18.30;76.40
56538;DHT22;42435;53.292;6.000;2023-05-09T13:41:07;18.10;76.40
56538;DHT22;42435;53.292;6.000;2023-05-09T13:43:35;18.00;76.50
56538;DHT22;42435;53.292;6.000;2023-05-09T13:46:04;17.90;76.80
56538;DHT22;42435;53.292;6.000;2023-05-09T13:48:30;17.80;77.30
56538;DHT22;42435;53.292;6.000;2023-05-09T13:50:56;17.80;77.60
56538;DHT22;42435;53.292;6.000;2023-05-09T13:53:30;17.80;77.70
56538;DHT22;42435;53.292;6.000;2023-05-09T13:55:56;17.80;78.00
56538;DHT22;42435;53.292;6.000;2023-05-09T13:58:23;17.70;78.00
56538;DHT22;42435;53.292;6.000;2023-05-09T14:00:49;17.70;78.00
56538;DHT22;42435;53.292;6.000;2023-05-09T14:03:15;17.60;78.30
56538;DHT22;42435;53.292;6.000;2023-05-09T14:05:41;17.60;78.50
56538;DHT22;42435;53.292;6.000;2023-05-09T14:08:07;17.70;78.60
56538;DHT22;42435;53.292;6.000;2023-05-09T14:10:37;17.60;78.60
56538;DHT22;42435;53.292;6.000;2023-05-09T14:13:03;17.60;78.70
56538;DHT22;42435;53.292;6.000;2023-05-09T14:15:29;17.60;78.40
56538;DHT22;42435;53.292;6.000;2023-05-09T14:17:55;17.50;78.20
56538;DHT22;42435;53.292;6.000;2023-05-09T14:20:21;17.40;78.20
56538;DHT22;42435;53.292;6.000;2023-05-09T14:22:53;17.40;78.30
56538;DHT22;42435;53.292;6.000;2023-05-09T14:25:24;17.30;78.30
56538;DHT22;42435;53.292;6.000;2023-05-09T14:27:56;17.30;78.30
56538;DHT22;42435;53.292;6.000;2023-05-09T14:30:24;17.20;78.60
56538;DHT22;42435;53.292;6.000;2023-05-09T14:32:51;17.20;78.90
56538;DHT22;42435;53.292;6.000;2023-05-09T14:35:17;17.20;78.80
56538;DHT22;42435;53.292;6.000;2023-05-09T14:37:44;17.20;78.90
56538;DHT22;42435;53.292;6.000;2023-05-09T14:40:10;17.20;79.00
56538;DHT22;42435;53.292;6.000;2023-05-09T14:42:47;17.20;78.90
56538;DHT22;42435;53.292;6.000;2023-05-09T14:45:16;17.10;78.70
56538;DHT22;42435;53.292;6.000;2023-05-09T14:47:44;17.10;78.60
56538;DHT22;42435;53.292;6.000;2023-05-09T14:50:14;17.00;78.80
56538;DHT22;42435;53.292;6.000;2023-05-09T14:52:41;17.00;78.90
56538;DHT22;42435;53.292;6.000;2023-05-09T14:55:09;17.00;79.00
56538;DHT22;42435;53.292;6.000;2023-05-09T14:57:37;16.90;79.10
56538;DHT22;42435;53.292;6.000;2023-05-09T15:00:05;16.90;79.10
56538;DHT22;42435;53.292;6.000;2023-05-09T15:02:31;16.90;79.30
56538;DHT22;42435;53.292;6.000;2023-05-09T15:04:57;17.00;79.30
56538;DHT22;42435;53.292;6.000;2023-05-09T15:07:24;17.00;79.30
56538;DHT22;42435;53.292;6.000;2023-05-09T15:09:49;16.90;79.40
56538;DHT22;42435;53.292;6.000;2023-05-09T15:12:16;16.90;79.30
56538;DHT22;42435;53.292;6.000;2023-05-09T15:14:42;16.90;79.40
56538;DHT22;42435;53.292;6.000;2023-05-09T15:17:07;16.90;79.60
56538;DHT22;42435;53.292;6.000;2023-05-09T15:19:33;16.90;79.60
56538;DHT22;42435;53.292;6.000;2023-05-09T15:22:00;16.90;79.70
56538;DHT22;42435;53.292;6.000;2023-05-09T15:24:28;16.90;79.70
56538;DHT22;42435;53.292;6.000;2023-05-09T15:26:54;16.90;79.90
56538;DHT22;42435;53.292;6.000;2023-05-09T15:29:20;16.90;79.90
56538;DHT22;42435;53.292;6.000;2023-05-09T15:31:46;16.90;80.10
56538;DHT22;42435;53.292;6.000;2023-05-09T15:34:13;16.90;80.10
56538;DHT22;42435;53.292;6.000;2023-05-09T15:36:41;16.90;80.30
56538;DHT22;42435;53.292;6.000;2023-05-09T15:39:07;16.90;80.40
56538;DHT22;42435;53.292;6.000;2023-05-09T15:41:35;16.90;80.40
56538;DHT22;42435;53.292;6.000;2023-05-09T15:44:01;16.90;80.50
56538;DHT22;42435;53.292;6.000;2023-05-09T15:46:27;16.90;80.50
56538;DHT22;42435;53.292;6.000;2023-05-09T15:48:53;17.00;80.40
56538;DHT22;42435;53.292;6.000;2023-05-09T15:51:19;17.00;80.40
56538;DHT22;42435;53.292;6.000;2023-05-09T15:53:45;17.00;80.60
56538;DHT22;42435;53.292;6.000;2023-05-09T15:56:10;17.10;80.60
56538;DHT22;42435;53.292;6.000;2023-05-09T15:58:39;17.10;80.70
56538;DHT22;42435;53.292;6.000;2023-05-09T16:01:04;17.10;80.60
56538;DHT22;42435;53.292;6.000;2023-05-09T16:03:34;17.10;80.40
56538;DHT22;42435;53.292;6.000;2023-05-09T16:06:01;17.10;80.50
56538;DHT22;42435;53.292;6.000;2023-05-09T16:08:27;17.10;80.50